sensor_id;sensor_type;location;lat;lon;timestamp;pressure;altitude;pressure_sealevel;temperature;humidity
84607;BME280;74838;47.984;7.842;2024-03-25T00:01:41;98021.38;;;6.79;82.16
84607;BME280;74838;47.984;7.842;2024-03-25T00:04:09;98017.69;;;6.80;83.79
84607;BME280;74838;47.984;7.842;2024-03-25T00:06:35;98020.91;;;6.82;83.51
84607;BME280;74838;47.984;7.842;2024-03-25T00:09:03;98017.19;;;6.83;83.00
84607;BME280;74838;47.984;7.842;2024-03-25T00:11:29;98024.09;;;6.84;83.58
84607;BME280;74838;47.984;7.842;2024-03-25T00:13:55;98017.19;;;6.83;83.50
84607;BME280;74838;47.984;7.842;2024-03-25T00:16:21;98019.84;;;6.83;83.33
84607;BME280;74838;47.984;7.842;2024-03-25T00:18:48;98018.50;;;6.80;83.52
84607;BME280;74838;47.984;7.842;2024-03-25T00:21:15;98015.06;;;6.80;83.13
84607;BME280;74838;47.984;7.842;2024-03-25T00:23:42;98014.81;;;6.81;82.49
84607;BME280;74838;47.984;7.842;2024-03-25T00:26:07;98009.53;;;6.81;82.75
84607;BME280;74838;47.984;7.842;2024-03-25T00:28:34;98006.63;;;6.83;82.83
84607;BME280;74838;47.984;7.842;2024-03-25T00:31:00;98000.31;;;6.84;83.07
84607;BME280;74838;47.984;7.842;2024-03-25T00:33:26;97994.50;;;6.82;83.38
84607;BME280;74838;47.984;7.842;2024-03-25T00:35:52;98003.53;;;6.86;82.75
84607;BME280;74838;47.984;7.842;2024-03-25T00:38:20;97994.81;;;6.85;82.40
84607;BME280;74838;47.984;7.842;2024-03-25T00:40:46;97989.44;;;6.80;82.35
84607;BME280;74838;47.984;7.842;2024-03-25T00:43:13;97985.38;;;6.73;82.23
84607;BME280;74838;47.984;7.842;2024-03-25T00:45:41;97990.72;;;6.78;82.15
84607;BME280;74838;47.984;7.842;2024-03-25T00:48:07;97980.41;;;6.76;82.42
84607;BME280;74838;47.984;7.842;2024-03-25T00:50:33;97975.50;;;6.68;81.75
84607;BME280;74838;47.984;7.842;2024-03-25T00:53:02;97989.03;;;6.72;82.88
84607;BME280;74838;47.984;7.842;2024-03-25T00:55:29;97987.09;;;6.67;81.80
84607;BME280;74838;47.984;7.842;2024-03-25T00:57:56;97989.66;;;6.62;81.95
84607;BME280;74838;47.984;7.842;2024-03-25T01:00:21;97979.00;;;6.58;83.09
84607;BME280;74838;47.984;7.842;2024-03-25T01:02:48;97971.03;;;6.53;82.17
84607;BME280;74838;47.984;7.842;2024-03-25T01:05:13;97972.03;;;6.52;82.51
84607;BME280;74838;47.984;7.842;2024-03-25T01:07:42;97978.59;;;6.49;82.29
84607;BME280;74838;47.984;7.842;2024-03-25T01:10:08;97965.66;;;6.48;81.86
84607;BME280;74838;47.984;7.842;2024-03-25T01:12:37;97964.84;;;6.47;82.49
84607;BME280;74838;47.984;7.842;2024-03-25T01:15:03;97970.59;;;6.44;82.16
84607;BME280;74838;47.984;7.842;2024-03-25T01:17:31;97975.38;;;6.47;82.21
84607;BME280;74838;47.984;7.842;2024-03-25T01:19:59;97969.31;;;6.47;81.81
84607;BME280;74838;47.984;7.842;2024-03-25T01:22:26;97969.53;;;6.45;82.31
84607;BME280;74838;47.984;7.842;2024-03-25T01:24:51;97962.09;;;6.42;82.49
84607;BME280;74838;47.984;7.842;2024-03-25T01:27:19;97964.59;;;6.32;82.16
84607;BME280;74838;47.984;7.842;2024-03-25T01:29:49;97960.19;;;6.38;82.57
84607;BME280;74838;47.984;7.842;2024-03-25T01:32:15;97959.38;;;6.37;83.25
84607;BME280;74838;47.984;7.842;2024-03-25T01:34:41;97954.69;;;6.39;82.87
84607;BME280;74838;47.984;7.842;2024-03-25T01:37:08;97957.59;;;6.26;84.01
84607;BME280;74838;47.984;7.842;2024-03-25T01:39:33;97949.91;;;6.25;84.89
84607;BME280;74838;47.984;7.842;2024-03-25T01:42:00;97951.66;;;6.19;85.27
84607;BME280;74838;47.984;7.842;2024-03-25T01:44:26;97946.75;;;6.12;85.51
84607;BME280;74838;47.984;7.842;2024-03-25T01:46:54;97947.09;;;6.15;85.74
84607;BME280;74838;47.984;7.842;2024-03-25T01:49:20;97952.78;;;6.23;86.27
84607;BME280;74838;47.984;7.842;2024-03-25T01:51:49;97948.03;;;6.09;86.08
84607;BME280;74838;47.984;7.842;2024-03-25T01:54:17;97942.94;;;5.91;86.40
84607;BME280;74838;47.984;7.842;2024-03-25T01:56:45;97941.06;;;6.03;86.26
84607;BME280;74838;47.984;7.842;2024-03-25T01:59:14;97936.59;;;6.04;85.95
84607;BME280;74838;47.984;7.842;2024-03-25T02:01:42;97935.78;;;6.03;86.19
84607;BME280;74838;47.984;7.842;2024-03-25T02:04:13;97925.00;;;6.05;87.18
84607;BME280;74838;47.984;7.842;2024-03-25T02:06:42;97919.75;;;5.93;86.21
84607;BME280;74838;47.984;7.842;2024-03-25T02:09:10;97923.78;;;5.96;86.80
84607;BME280;74838;47.984;7.842;2024-03-25T02:11:41;97921.63;;;5.93;87.10
84607;BME280;74838;47.984;7.842;2024-03-25T02:14:07;97910.69;;;6.01;87.41
84607;BME280;74838;47.984;7.842;2024-03-25T02:16:34;97913.09;;;6.02;87.18
84607;BME280;74838;47.984;7.842;2024-03-25T02:19:00;97907.97;;;5.96;87.07
84607;BME280;74838;47.984;7.842;2024-03-25T02:21:30;97915.69;;;5.86;86.63
84607;BME280;74838;47.984;7.842;2024-03-25T02:23:56;97918.53;;;5.84;86.36
84607;BME280;74838;47.984;7.842;2024-03-25T02:26:29;97919.38;;;5.62;87.04
84607;BME280;74838;47.984;7.842;2024-03-25T02:29:00;97909.66;;;5.74;87.58
84607;BME280;74838;47.984;7.842;2024-03-25T02:31:26;97913.50;;;5.83;87.09
84607;BME280;74838;47.984;7.842;2024-03-25T02:33:52;97915.69;;;5.86;87.31
84607;BME280;74838;47.984;7.842;2024-03-25T02:36:21;97922.31;;;5.88;86.68
84607;BME280;74838;47.984;7.842;2024-03-25T02:38:50;97912.38;;;5.79;86.17
84607;BME280;74838;47.984;7.842;2024-03-25T02:41:17;97919.41;;;5.74;86.08
84607;BME280;74838;47.984;7.842;2024-03-25T02:43:45;97922.59;;;5.53;87.03
84607;BME280;74838;47.984;7.842;2024-03-25T02:46:12;97918.06;;;5.37;87.24
84607;BME280;74838;47.984;7.842;2024-03-25T02:48:38;97919.31;;;5.34;87.66
84607;BME280;74838;47.984;7.842;2024-03-25T02:51:04;97916.09;;;5.33;87.78
84607;BME280;74838;47.984;7.842;2024-03-25T02:53:30;97923.91;;;5.28;88.05
84607;BME280;74838;47.984;7.842;2024-03-25T02:55:57;97925.06;;;5.32;87.63
84607;BME280;74838;47.984;7.842;2024-03-25T02:58:22;97922.88;;;5.40;87.39
84607;BME280;74838;47.984;7.842;2024-03-25T03:00:51;97924.44;;;5.41;87.51
84607;BME280;74838;47.984;7.842;2024-03-25T03:03:19;97916.66;;;5.46;87.19
84607;BME280;74838;47.984;7.842;2024-03-25T03:05:45;97916.88;;;5.56;88.01
84607;BME280;74838;47.984;7.842;2024-03-25T03:08:11;97928.53;;;5.60;88.97
84607;BME280;74838;47.984;7.842;2024-03-25T03:10:40;97925.69;;;5.61;88.83
84607;BME280;74838;47.984;7.842;2024-03-25T03:13:05;97916.28;;;5.65;90.53
84607;BME280;74838;47.984;7.842;2024-03-25T03:15:32;97925.78;;;5.66;88.58
84607;BME280;74838;47.984;7.842;2024-03-25T03:17:59;97924.88;;;5.72;86.99
84607;BME280;74838;47.984;7.842;2024-03-25T03:20:27;97921.34;;;5.55;87.43
84607;BME280;74838;47.984;7.842;2024-03-25T03:22:53;97919.22;;;5.30;87.20
84607;BME280;74838;47.984;7.842;2024-03-25T03:25:22;97914.47;;;5.43;89.05
84607;BME280;74838;47.984;7.842;2024-03-25T03:27:50;97914.19;;;5.28;88.39
84607;BME280;74838;47.984;7.842;2024-03-25T03:30:18;97916.38;;;5.20;88.80
84607;BME280;74838;47.984;7.842;2024-03-25T03:32:44;97897.81;;;5.15;88.51
84607;BME280;74838;47.984;7.842;2024-03-25T03:35:12;97908.81;;;5.12;88.77
84607;BME280;74838;47.984;7.842;2024-03-25T03:37:40;97909.81;;;5.11;88.99
84607;BME280;74838;47.984;7.842;2024-03-25T03:40:10;97910.63;;;5.23;90.61
84607;BME280;74838;47.984;7.842;2024-03-25T03:42:36;97913.69;;;5.31;91.11
84607;BME280;74838;47.984;7.842;2024-03-25T03:45:04;97916.22;;;5.37;92.37
84607;BME280;74838;47.984;7.842;2024-03-25T03:47:29;97900.78;;;5.30;89.74
84607;BME280;74838;47.984;7.842;2024-03-25T03:50:02;97906.41;;;5.33;90.98
84607;BME280;74838;47.984;7.842;2024-03-25T03:52:29;97907.63;;;5.31;89.73
84607;BME280;74838;47.984;7.842;2024-03-25T03:54:56;97906.72;;;5.36;89.22
84607;BME280;74838;47.984;7.842;2024-03-25T03:57:21;97900.31;;;5.33;88.85
84607;BME280;74838;47.984;7.842;2024-03-25T03:59:48;97903.03;;;5.37;88.34
84607;BME280;74838;47.984;7.842;2024-03-25T04:02:14;97893.13;;;5.28;88.32
84607;BME280;74838;47.984;7.842;2024-03-25T04:04:40;97881.09;;;5.21;88.69
84607;BME280;74838;47.984;7.842;2024-03-25T04:07:06;97900.69;;;5.25;88.30
84607;BME280;74838;47.984;7.842;2024-03-25T04:09:41;97905.34;;;5.23;88.15
84607;BME280;74838;47.984;7.842;2024-03-25T04:12:11;97897.81;;;5.26;88.62
84607;BME280;74838;47.984;7.842;2024-03-25T04:14:41;97899.06;;;5.24;88.13
84607;BME280;74838;47.984;7.842;2024-03-25T04:17:08;97897.72;;;5.21;88.21
84607;BME280;74838;47.984;7.842;2024-03-25T04:19:37;97895.19;;;5.15;88.48
84607;BME280;74838;47.984;7.842;2024-03-25T04:22:04;97889.38;;;5.13;88.25
84607;BME280;74838;47.984;7.842;2024-03-25T04:24:34;97893.13;;;5.05;88.56
84607;BME280;74838;47.984;7.842;2024-03-25T04:27:01;97891.88;;;5.08;88.36
84607;BME280;74838;47.984;7.842;2024-03-25T04:29:28;97889.94;;;5.03;88.36
84607;BME280;74838;47.984;7.842;2024-03-25T04:31:57;97883.88;;;5.03;88.54
84607;BME280;74838;47.984;7.842;2024-03-25T04:34:25;97867.41;;;4.96;88.25
84607;BME280;74838;47.984;7.842;2024-03-25T04:36:52;97874.69;;;4.94;87.87
84607;BME280;74838;47.984;7.842;2024-03-25T04:39:20;97866.59;;;4.84;88.21
84607;BME280;74838;47.984;7.842;2024-03-25T04:41:45;97856.19;;;4.78;89.16
84607;BME280;74838;47.984;7.842;2024-03-25T04:44:20;97863.50;;;4.87;88.88
84607;BME280;74838;47.984;7.842;2024-03-25T04:46:46;97866.59;;;4.84;88.26
84607;BME280;74838;47.984;7.842;2024-03-25T04:49:11;97867.06;;;4.81;88.01
84607;BME280;74838;47.984;7.842;2024-03-25T04:51:37;97851.59;;;4.73;89.13
84607;BME280;74838;47.984;7.842;2024-03-25T04:54:03;97858.38;;;4.81;88.86
84607;BME280;74838;47.984;7.842;2024-03-25T04:56:28;97861.22;;;4.79;88.92
84607;BME280;74838;47.984;7.842;2024-03-25T04:58:56;97866.84;;;4.83;88.73
84607;BME280;74838;47.984;7.842;2024-03-25T05:01:24;97855.84;;;4.74;88.89
84607;BME280;74838;47.984;7.842;2024-03-25T05:04:00;97856.97;;;4.78;88.14
84607;BME280;74838;47.984;7.842;2024-03-25T05:06:26;97860.06;;;4.75;88.02
84607;BME280;74838;47.984;7.842;2024-03-25T05:08:54;97838.94;;;4.59;88.35
84607;BME280;74838;47.984;7.842;2024-03-25T05:11:20;97859.75;;;4.60;88.07
84607;BME280;74838;47.984;7.842;2024-03-25T05:13:46;97855.94;;;4.56;88.13
84607;BME280;74838;47.984;7.842;2024-03-25T05:16:11;97861.44;;;4.55;88.44
84607;BME280;74838;47.984;7.842;2024-03-25T05:18:40;97862.81;;;4.57;88.82
84607;BME280;74838;47.984;7.842;2024-03-25T05:21:05;97868.19;;;4.51;88.07
84607;BME280;74838;47.984;7.842;2024-03-25T05:23:31;97857.44;;;4.53;88.66
84607;BME280;74838;47.984;7.842;2024-03-25T05:25:57;97867.97;;;4.53;88.67
84607;BME280;74838;47.984;7.842;2024-03-25T05:28:25;97859.38;;;4.46;89.58
84607;BME280;74838;47.984;7.842;2024-03-25T05:30:51;97856.19;;;4.44;89.39
84607;BME280;74838;47.984;7.842;2024-03-25T05:33:16;97854.56;;;4.43;90.37
84607;BME280;74838;47.984;7.842;2024-03-25T05:35:46;97858.56;;;4.45;90.50
84607;BME280;74838;47.984;7.842;2024-03-25T05:38:12;97857.53;;;4.46;89.93
84607;BME280;74838;47.984;7.842;2024-03-25T05:40:38;97864.06;;;4.44;88.94
84607;BME280;74838;47.984;7.842;2024-03-25T05:43:03;97858.00;;;4.43;88.23
84607;BME280;74838;47.984;7.842;2024-03-25T05:45:29;97852.75;;;4.32;87.44
84607;BME280;74838;47.984;7.842;2024-03-25T05:47:55;97854.78;;;4.30;87.93
84607;BME280;74838;47.984;7.842;2024-03-25T05:50:21;97860.84;;;4.30;87.30
84607;BME280;74838;47.984;7.842;2024-03-25T05:52:48;97857.66;;;4.28;88.01
84607;BME280;74838;47.984;7.842;2024-03-25T05:55:13;97863.34;;;4.25;87.70
84607;BME280;74838;47.984;7.842;2024-03-25T05:57:39;97856.38;;;4.31;88.07
84607;BME280;74838;47.984;7.842;2024-03-25T06:00:06;97856.50;;;4.36;88.05
84607;BME280;74838;47.984;7.842;2024-03-25T06:02:37;97863.03;;;4.45;88.62
84607;BME280;74838;47.984;7.842;2024-03-25T06:05:04;97861.53;;;4.37;88.24
84607;BME280;74838;47.984;7.842;2024-03-25T06:07:34;97861.88;;;4.41;88.37
84607;BME280;74838;47.984;7.842;2024-03-25T06:10:01;97858.94;;;4.49;88.33
84607;BME280;74838;47.984;7.842;2024-03-25T06:12:27;97857.75;;;4.45;88.35
84607;BME280;74838;47.984;7.842;2024-03-25T06:14:53;97858.09;;;4.37;88.79
84607;BME280;74838;47.984;7.842;2024-03-25T06:17:21;97857.53;;;4.35;88.24
84607;BME280;74838;47.984;7.842;2024-03-25T06:19:48;97855.94;;;4.34;88.16
84607;BME280;74838;47.984;7.842;2024-03-25T06:22:14;97859.59;;;4.33;88.37
84607;BME280;74838;47.984;7.842;2024-03-25T06:24:41;97852.97;;;4.30;88.32
84607;BME280;74838;47.984;7.842;2024-03-25T06:27:08;97846.75;;;4.25;88.57
84607;BME280;74838;47.984;7.842;2024-03-25T06:29:37;97848.28;;;4.32;88.66
84607;BME280;74838;47.984;7.842;2024-03-25T06:32:02;97849.06;;;4.33;88.35
84607;BME280;74838;47.984;7.842;2024-03-25T06:34:47;97842.44;;;4.42;88.35
84607;BME280;74838;47.984;7.842;2024-03-25T06:37:15;97833.09;;;4.46;87.62
84607;BME280;74838;47.984;7.842;2024-03-25T06:39:43;97836.41;;;4.53;87.68
84607;BME280;74838;47.984;7.842;2024-03-25T06:42:11;97840.28;;;4.61;87.61
84607;BME280;74838;47.984;7.842;2024-03-25T06:44:36;97827.94;;;4.73;87.02
84607;BME280;74838;47.984;7.842;2024-03-25T06:47:02;97815.78;;;4.84;86.88
84607;BME280;74838;47.984;7.842;2024-03-25T06:49:29;97815.22;;;4.93;87.42
84607;BME280;74838;47.984;7.842;2024-03-25T06:51:55;97810.53;;;4.95;86.00
84607;BME280;74838;47.984;7.842;2024-03-25T06:54:21;97808.09;;;5.05;86.25
84607;BME280;74838;47.984;7.842;2024-03-25T06:56:46;97798.69;;;5.09;84.78
84607;BME280;74838;47.984;7.842;2024-03-25T06:59:13;97802.22;;;5.26;83.48
84607;BME280;74838;47.984;7.842;2024-03-25T07:01:39;97791.66;;;5.37;83.65
84607;BME280;74838;47.984;7.842;2024-03-25T07:04:08;97791.97;;;5.40;83.97
84607;BME280;74838;47.984;7.842;2024-03-25T07:06:33;97787.50;;;5.41;82.36
84607;BME280;74838;47.984;7.842;2024-03-25T07:08:59;97794.69;;;5.45;81.68
84607;BME280;74838;47.984;7.842;2024-03-25T07:11:25;97771.41;;;5.54;81.96
84607;BME280;74838;47.984;7.842;2024-03-25T07:13:50;97783.72;;;5.65;81.16
84607;BME280;74838;47.984;7.842;2024-03-25T07:16:20;97780.16;;;5.71;81.44
84607;BME280;74838;47.984;7.842;2024-03-25T07:18:45;97782.38;;;5.90;81.35
84607;BME280;74838;47.984;7.842;2024-03-25T07:21:15;97791.09;;;5.90;80.19
84607;BME280;74838;47.984;7.842;2024-03-25T07:23:40;97778.22;;;6.10;79.23
84607;BME280;74838;47.984;7.842;2024-03-25T07:26:06;97774.72;;;6.21;79.16
84607;BME280;74838;47.984;7.842;2024-03-25T07:28:32;97766.75;;;6.32;77.74
84607;BME280;74838;47.984;7.842;2024-03-25T07:30:57;97755.84;;;6.45;77.82
84607;BME280;74838;47.984;7.842;2024-03-25T07:33:24;97763.44;;;6.58;76.95
84607;BME280;74838;47.984;7.842;2024-03-25T07:35:50;97763.25;;;6.64;75.29
84607;BME280;74838;47.984;7.842;2024-03-25T07:38:16;97755.22;;;6.76;76.01
84607;BME280;74838;47.984;7.842;2024-03-25T07:40:42;97751.44;;;6.88;74.81
84607;BME280;74838;47.984;7.842;2024-03-25T07:43:10;97742.28;;;6.96;74.55
84607;BME280;74838;47.984;7.842;2024-03-25T07:45:35;97751.97;;;7.11;74.98
84607;BME280;74838;47.984;7.842;2024-03-25T07:48:01;97746.31;;;7.24;74.68
84607;BME280;74838;47.984;7.842;2024-03-25T07:50:30;97750.94;;;7.34;74.87
84607;BME280;74838;47.984;7.842;2024-03-25T07:52:58;97745.50;;;7.45;74.26
84607;BME280;74838;47.984;7.842;2024-03-25T07:55:24;97748.25;;;7.55;73.26
84607;BME280;74838;47.984;7.842;2024-03-25T07:57:49;97747.25;;;7.61;73.23
84607;BME280;74838;47.984;7.842;2024-03-25T08:00:15;97740.47;;;7.70;72.56
84607;BME280;74838;47.984;7.842;2024-03-25T08:02:41;97727.28;;;7.75;72.54
84607;BME280;74838;47.984;7.842;2024-03-25T08:05:07;97723.69;;;7.85;70.92
84607;BME280;74838;47.984;7.842;2024-03-25T08:07:34;97738.56;;;7.91;70.47
84607;BME280;74838;47.984;7.842;2024-03-25T08:10:00;97727.19;;;7.96;69.73
84607;BME280;74838;47.984;7.842;2024-03-25T08:12:26;97729.16;;;8.05;69.70
84607;BME280;74838;47.984;7.842;2024-03-25T08:14:51;97724.47;;;8.12;69.32
84607;BME280;74838;47.984;7.842;2024-03-25T08:17:20;97723.44;;;8.13;68.94
84607;BME280;74838;47.984;7.842;2024-03-25T08:19:45;97718.56;;;8.05;66.39
84607;BME280;74838;47.984;7.842;2024-03-25T08:22:11;97708.09;;;8.15;66.83
84607;BME280;74838;47.984;7.842;2024-03-25T08:24:38;97710.38;;;8.43;65.38
84607;BME280;74838;47.984;7.842;2024-03-25T08:27:04;97703.28;;;8.48;63.09
84607;BME280;74838;47.984;7.842;2024-03-25T08:29:29;97704.44;;;8.62;63.01
84607;BME280;74838;47.984;7.842;2024-03-25T08:31:55;97706.34;;;8.76;63.65
84607;BME280;74838;47.984;7.842;2024-03-25T08:34:26;97695.28;;;8.89;63.18
84607;BME280;74838;47.984;7.842;2024-03-25T08:36:51;97688.72;;;9.02;60.83
84607;BME280;74838;47.984;7.842;2024-03-25T08:39:17;97679.19;;;9.06;60.26
84607;BME280;74838;47.984;7.842;2024-03-25T08:41:44;97676.31;;;9.27;58.10
84607;BME280;74838;47.984;7.842;2024-03-25T08:44:10;97674.25;;;9.44;58.64
84607;BME280;74838;47.984;7.842;2024-03-25T08:46:35;97666.31;;;9.53;58.11
84607;BME280;74838;47.984;7.842;2024-03-25T08:49:03;97663.94;;;9.72;59.14
84607;BME280;74838;47.984;7.842;2024-03-25T08:51:37;97670.31;;;9.91;59.17
84607;BME280;74838;47.984;7.842;2024-03-25T08:54:03;97659.19;;;9.93;57.96
84607;BME280;74838;47.984;7.842;2024-03-25T08:56:29;97655.72;;;10.08;57.05
84607;BME280;74838;47.984;7.842;2024-03-25T08:59:01;97656.25;;;10.15;57.88
84607;BME280;74838;47.984;7.842;2024-03-25T09:01:30;97653.59;;;10.25;56.70
84607;BME280;74838;47.984;7.842;2024-03-25T09:03:56;97645.59;;;10.34;54.85
84607;BME280;74838;47.984;7.842;2024-03-25T09:06:21;97643.44;;;10.51;53.35
84607;BME280;74838;47.984;7.842;2024-03-25T09:08:55;97642.88;;;10.59;49.98
84607;BME280;74838;47.984;7.842;2024-03-25T09:11:41;97641.81;;;10.60;48.56
84607;BME280;74838;47.984;7.842;2024-03-25T09:14:08;97636.47;;;10.70;51.24
84607;BME280;74838;47.984;7.842;2024-03-25T09:16:34;97637.75;;;10.77;48.22
84607;BME280;74838;47.984;7.842;2024-03-25T09:19:03;97628.44;;;10.80;47.43
84607;BME280;74838;47.984;7.842;2024-03-25T09:21:36;97627.31;;;10.91;47.52
84607;BME280;74838;47.984;7.842;2024-03-25T09:24:02;97620.94;;;10.97;46.81
84607;BME280;74838;47.984;7.842;2024-03-25T09:26:39;97627.81;;;10.98;45.86
84607;BME280;74838;47.984;7.842;2024-03-25T09:29:08;97611.81;;;11.08;45.66
84607;BME280;74838;47.984;7.842;2024-03-25T09:31:34;97608.41;;;11.02;44.80
84607;BME280;74838;47.984;7.842;2024-03-25T09:34:01;97608.09;;;11.09;44.99
84607;BME280;74838;47.984;7.842;2024-03-25T09:36:32;97613.16;;;11.10;45.57
84607;BME280;74838;47.984;7.842;2024-03-25T09:38:58;97604.06;;;11.16;45.71
84607;BME280;74838;47.984;7.842;2024-03-25T09:41:24;97604.31;;;11.19;43.95
84607;BME280;74838;47.984;7.842;2024-03-25T09:43:56;97595.53;;;11.19;43.34
84607;BME280;74838;47.984;7.842;2024-03-25T09:46:26;97583.22;;;11.33;43.92
84607;BME280;74838;47.984;7.842;2024-03-25T09:48:52;97582.34;;;11.42;44.67
84607;BME280;74838;47.984;7.842;2024-03-25T09:51:20;97584.53;;;11.35;40.73
84607;BME280;74838;47.984;7.842;2024-03-25T09:53:52;97577.53;;;11.49;41.73
84607;BME280;74838;47.984;7.842;2024-03-25T09:56:17;97577.53;;;11.49;41.13
84607;BME280;74838;47.984;7.842;2024-03-25T09:58:51;97573.72;;;11.60;39.95
84607;BME280;74838;47.984;7.842;2024-03-25T10:01:18;97567.19;;;11.76;41.26
84607;BME280;74838;47.984;7.842;2024-03-25T10:03:54;97564.34;;;11.67;38.17
84607;BME280;74838;47.984;7.842;2024-03-25T10:06:23;97565.75;;;11.55;39.49
84607;BME280;74838;47.984;7.842;2024-03-25T10:08:48;97555.03;;;11.65;40.60
84607;BME280;74838;47.984;7.842;2024-03-25T10:11:17;97544.34;;;11.70;40.38
84607;BME280;74838;47.984;7.842;2024-03-25T10:13:43;97546.78;;;11.95;42.46
84607;BME280;74838;47.984;7.842;2024-03-25T10:16:11;97530.22;;;12.02;42.75
84607;BME280;74838;47.984;7.842;2024-03-25T10:18:45;97539.25;;;12.01;40.63
84607;BME280;74838;47.984;7.842;2024-03-25T10:21:13;97526.44;;;12.03;39.30
84607;BME280;74838;47.984;7.842;2024-03-25T10:23:40;97531.78;;;12.03;40.12
84607;BME280;74838;47.984;7.842;2024-03-25T10:26:25;97528.50;;;12.11;40.41
84607;BME280;74838;47.984;7.842;2024-03-25T10:29:01;97534.72;;;12.25;41.05
84607;BME280;74838;47.984;7.842;2024-03-25T10:31:28;97518.28;;;12.18;39.54
84607;BME280;74838;47.984;7.842;2024-03-25T10:33:56;97511.81;;;12.24;40.47
84607;BME280;74838;47.984;7.842;2024-03-25T10:36:24;97448.03;;;12.14;41.50
84607;BME280;74838;47.984;7.842;2024-03-25T10:38:54;97484.94;;;12.44;40.14
84607;BME280;74838;47.984;7.842;2024-03-25T10:41:20;97481.34;;;12.12;39.72
84607;BME280;74838;47.984;7.842;2024-03-25T10:43:47;97481.91;;;12.09;39.83
84607;BME280;74838;47.984;7.842;2024-03-25T10:46:18;97485.59;;;12.36;41.71
84607;BME280;74838;47.984;7.842;2024-03-25T10:48:48;97469.00;;;12.39;40.53
84607;BME280;74838;47.984;7.842;2024-03-25T10:51:16;97463.44;;;12.17;40.15
84607;BME280;74838;47.984;7.842;2024-03-25T10:53:51;97460.38;;;12.29;40.58
84607;BME280;74838;47.984;7.842;2024-03-25T10:56:20;97455.38;;;12.22;42.30
84607;BME280;74838;47.984;7.842;2024-03-25T10:58:56;97441.16;;;12.32;42.59
84607;BME280;74838;47.984;7.842;2024-03-25T11:01:22;97431.34;;;12.27;40.42
84607;BME280;74838;47.984;7.842;2024-03-25T11:03:52;97430.00;;;12.48;41.42
84607;BME280;74838;47.984;7.842;2024-03-25T11:06:19;97418.81;;;12.46;40.72
84607;BME280;74838;47.984;7.842;2024-03-25T11:08:44;97404.06;;;12.72;43.17
84607;BME280;74838;47.984;7.842;2024-03-25T11:11:12;97406.44;;;12.91;42.02
84607;BME280;74838;47.984;7.842;2024-03-25T11:13:39;97406.69;;;13.08;42.09
84607;BME280;74838;47.984;7.842;2024-03-25T11:16:07;97386.56;;;12.66;40.36
84607;BME280;74838;47.984;7.842;2024-03-25T11:18:36;97382.41;;;12.60;41.24
84607;BME280;74838;47.984;7.842;2024-03-25T11:21:03;97380.06;;;12.72;41.67
84607;BME280;74838;47.984;7.842;2024-03-25T11:23:42;97381.50;;;12.64;40.40
84607;BME280;74838;47.984;7.842;2024-03-25T11:26:18;97370.06;;;12.82;42.04
84607;BME280;74838;47.984;7.842;2024-03-25T11:28:52;97358.06;;;12.98;43.34
84607;BME280;74838;47.984;7.842;2024-03-25T11:31:20;97368.19;;;13.14;42.45
84607;BME280;74838;47.984;7.842;2024-03-25T11:33:51;97361.66;;;13.20;42.27
84607;BME280;74838;47.984;7.842;2024-03-25T11:36:21;97334.31;;;12.83;40.50
84607;BME280;74838;47.984;7.842;2024-03-25T11:39:02;97345.38;;;12.90;41.77
84607;BME280;74838;47.984;7.842;2024-03-25T11:41:30;97351.91;;;12.84;42.87
84607;BME280;74838;47.984;7.842;2024-03-25T11:43:58;97340.78;;;12.77;42.78
84607;BME280;74838;47.984;7.842;2024-03-25T11:46:25;97347.97;;;12.63;42.53
84607;BME280;74838;47.984;7.842;2024-03-25T11:48:50;97327.34;;;12.69;44.03
84607;BME280;74838;47.984;7.842;2024-03-25T11:51:21;97323.56;;;12.70;43.61
84607;BME280;74838;47.984;7.842;2024-03-25T11:53:50;97311.19;;;12.79;42.84
84607;BME280;74838;47.984;7.842;2024-03-25T11:56:18;97313.72;;;12.88;43.55
84607;BME280;74838;47.984;7.842;2024-03-25T11:58:45;97302.75;;;13.03;43.18
84607;BME280;74838;47.984;7.842;2024-03-25T12:01:16;97299.19;;;13.08;42.71
84607;BME280;74838;47.984;7.842;2024-03-25T12:03:42;97281.94;;;13.05;42.36
84607;BME280;74838;47.984;7.842;2024-03-25T12:06:09;97281.72;;;12.88;41.10
84607;BME280;74838;47.984;7.842;2024-03-25T12:08:45;97276.13;;;12.72;41.67
84607;BME280;74838;47.984;7.842;2024-03-25T12:11:11;97272.44;;;12.99;42.97
84607;BME280;74838;47.984;7.842;2024-03-25T12:13:47;97272.44;;;13.13;41.22
84607;BME280;74838;47.984;7.842;2024-03-25T12:16:19;97264.03;;;13.06;41.33
84607;BME280;74838;47.984;7.842;2024-03-25T12:18:47;97267.41;;;13.11;40.68
84607;BME280;74838;47.984;7.842;2024-03-25T12:21:14;97259.88;;;13.13;40.95
84607;BME280;74838;47.984;7.842;2024-03-25T12:23:42;97263.94;;;13.24;42.23
84607;BME280;74838;47.984;7.842;2024-03-25T12:26:08;97252.97;;;13.12;40.60
84607;BME280;74838;47.984;7.842;2024-03-25T12:28:34;97229.47;;;13.01;41.95
84607;BME280;74838;47.984;7.842;2024-03-25T12:31:07;97236.97;;;13.12;41.65
84607;BME280;74838;47.984;7.842;2024-03-25T12:33:40;97230.25;;;13.28;42.41
84607;BME280;74838;47.984;7.842;2024-03-25T12:36:06;97222.34;;;12.96;41.09
84607;BME280;74838;47.984;7.842;2024-03-25T12:38:32;97219.38;;;13.11;41.32
84607;BME280;74838;47.984;7.842;2024-03-25T12:41:04;97202.59;;;13.11;41.55
84607;BME280;74838;47.984;7.842;2024-03-25T12:43:31;97194.31;;;13.12;41.85
84607;BME280;74838;47.984;7.842;2024-03-25T12:46:02;97180.25;;;13.20;42.37
84607;BME280;74838;47.984;7.842;2024-03-25T12:48:28;97183.53;;;13.17;41.06
84607;BME280;74838;47.984;7.842;2024-03-25T12:50:58;97180.31;;;13.28;42.18
84607;BME280;74838;47.984;7.842;2024-03-25T12:53:30;97185.25;;;13.35;41.38
84607;BME280;74838;47.984;7.842;2024-03-25T12:55:56;97177.19;;;13.26;40.86
84607;BME280;74838;47.984;7.842;2024-03-25T12:58:21;97163.81;;;13.40;42.32
84607;BME280;74838;47.984;7.842;2024-03-25T13:00:56;97167.16;;;13.45;41.25
84607;BME280;74838;47.984;7.842;2024-03-25T13:03:23;97162.00;;;13.49;41.25
84607;BME280;74838;47.984;7.842;2024-03-25T13:05:51;97153.44;;;13.38;41.44
84607;BME280;74838;47.984;7.842;2024-03-25T13:08:18;97149.13;;;13.51;42.00
84607;BME280;74838;47.984;7.842;2024-03-25T13:10:44;97148.16;;;13.47;40.99